Time;durP1;ratioP1;P1;durP2;ratioP2;P2;SDS_P1;SDS_P2;PMS_P1;PMS_P2;Temp;Humidity;BMP_temperature;BMP_pressure;BME280_temperature;BME280_humidity;BME280_pressure;Samples;Min_cycle;Max_cycle;Signal;HPM_P1;HPM_P2
2021/05/12 00:01:10;;;;;;;18.35;13.65;;;12.20;99.90;;;;;;5079160;28;20045;-63
2021/05/12 00:03:36;;;;;;;15.63;12.40;;;12.10;99.90;;;;;;5075012;28;20040;-64
2021/05/12 00:06:03;;;;;;;18.40;14.10;;;12.10;99.90;;;;;;5087849;28;20048;-64
2021/05/12 00:08:29;;;;;;;16.30;13.52;;;12.10;99.90;;;;;;5083569;28;20040;-64
2021/05/12 00:10:55;;;;;;;17.15;13.32;;;12.10;99.90;;;;;;5085434;28;20071;-64
2021/05/12 00:13:21;;;;;;;17.30;14.32;;;12.10;99.90;;;;;;5088304;28;20493;-64
2021/05/12 00:15:47;;;;;;;19.75;14.90;;;12.00;99.90;;;;;;5088057;28;20048;-64
2021/05/12 00:18:18;;;;;;;21.40;14.10;;;12.00;99.90;;;;;;5087526;28;20115;-64
2021/05/12 00:20:44;;;;;;;21.45;13.63;;;12.00;99.90;;;;;;5087880;28;20045;-64
2021/05/12 00:23:17;;;;;;;19.70;14.43;;;12.00;99.90;;;;;;5074164;28;20055;-64
2021/05/12 00:25:43;;;;;;;23.98;14.95;;;12.00;99.90;;;;;;5078666;28;20041;-64
2021/05/12 00:28:09;;;;;;;20.75;14.18;;;12.00;99.90;;;;;;5071968;28;20053;-64
2021/05/12 00:30:35;;;;;;;21.10;15.18;;;12.00;99.90;;;;;;5087508;28;20048;-64
2021/05/12 00:33:01;;;;;;;22.98;14.38;;;12.00;99.90;;;;;;5087128;28;20119;-64
2021/05/12 00:35:27;;;;;;;23.10;14.75;;;12.00;99.90;;;;;;5087512;28;20067;-64
2021/05/12 00:37:54;;;;;;;19.83;14.18;;;12.00;99.90;;;;;;5087751;28;20041;-65
2021/05/12 00:40:20;;;;;;;23.25;13.98;;;12.00;99.90;;;;;;5080255;28;20037;-64
2021/05/12 00:42:48;;;;;;;19.75;14.18;;;12.00;99.90;;;;;;5080723;28;20071;-64
2021/05/12 00:45:19;;;;;;;19.67;13.55;;;11.90;99.90;;;;;;5075729;28;20048;-64
2021/05/12 00:47:48;;;;;;;19.35;14.55;;;12.00;99.90;;;;;;5087233;28;20049;-64
2021/05/12 00:50:16;;;;;;;20.45;14.48;;;11.90;99.90;;;;;;5078868;28;20045;-64
2021/05/12 00:52:42;;;;;;;18.83;14.10;;;12.00;99.90;;;;;;5083715;28;20047;-65
2021/05/12 00:55:09;;;;;;;20.70;14.48;;;11.90;99.90;;;;;;5078971;28;20064;-64
2021/05/12 00:57:36;;;;;;;18.02;13.73;;;12.00;99.90;;;;;;5067541;28;20137;-64
2021/05/12 01:00:08;;;;;;;19.88;14.52;;;11.90;99.90;;;;;;5075371;28;20112;-64
2021/05/12 01:02:35;;;;;;;19.02;12.77;;;11.90;99.90;;;;;;5086912;28;20075;-64
2021/05/12 01:05:01;;;;;;;18.60;12.48;;;11.90;99.90;;;;;;5087454;28;20053;-64
2021/05/12 01:07:27;;;;;;;19.40;13.98;;;12.00;99.90;;;;;;5087015;28;20062;-64
2021/05/12 01:09:53;;;;;;;15.75;12.75;;;12.00;99.90;;;;;;5086598;28;20096;-64
2021/05/12 01:12:19;;;;;;;18.13;13.77;;;11.90;99.90;;;;;;5073592;28;20041;-64
2021/05/12 01:14:45;;;;;;;19.67;13.65;;;11.90;99.90;;;;;;5086835;28;20043;-64
2021/05/12 01:17:11;;;;;;;16.73;12.75;;;12.00;99.90;;;;;;5086596;28;20421;-64
2021/05/12 01:19:39;;;;;;;18.80;13.18;;;11.90;99.90;;;;;;5080069;28;20141;-64
2021/05/12 01:22:04;;;;;;;18.75;13.48;;;11.90;99.90;;;;;;5081418;28;20086;-64
2021/05/12 01:24:30;;;;;;;18.00;13.43;;;11.90;99.90;;;;;;5086714;28;20052;-64
2021/05/12 01:27:14;;;;;;;18.08;13.15;;;11.90;99.90;;;;;;5079183;28;20394;-64
2021/05/12 01:29:40;;;;;;;17.05;13.45;;;11.90;99.90;;;;;;5066602;28;20078;-64
2021/05/12 01:32:07;;;;;;;18.55;13.32;;;11.90;99.90;;;;;;5081841;28;20044;-64
2021/05/12 01:34:32;;;;;;;15.40;12.18;;;11.90;99.90;;;;;;5086419;28;20052;-64
2021/05/12 01:36:58;;;;;;;15.60;12.68;;;11.90;99.90;;;;;;5072798;28;20131;-65
2021/05/12 01:39:24;;;;;;;14.95;12.82;;;11.90;99.90;;;;;;5086384;28;20108;-64
2021/05/12 01:41:50;;;;;;;16.67;12.60;;;11.90;99.90;;;;;;5085679;28;20079;-64
2021/05/12 01:44:16;;;;;;;15.15;11.80;;;12.00;99.90;;;;;;5072873;28;20064;-64
2021/05/12 01:46:45;;;;;;;16.42;12.27;;;12.00;99.90;;;;;;5086289;28;20489;-64
2021/05/12 01:49:12;;;;;;;16.70;12.47;;;12.00;99.90;;;;;;5086932;28;20041;-64
2021/05/12 01:51:39;;;;;;;16.35;12.63;;;12.00;99.90;;;;;;5074439;28;20060;-65
2021/05/12 01:54:08;;;;;;;19.70;13.75;;;12.00;99.90;;;;;;5084706;28;20063;-64
2021/05/12 01:56:35;;;;;;;18.55;13.25;;;11.90;99.90;;;;;;5068199;28;20049;-64
2021/05/12 01:59:03;;;;;;;16.67;11.95;;;12.00;99.90;;;;;;5084889;28;20135;-64
2021/05/12 02:01:29;;;;;;;18.35;12.95;;;11.90;99.90;;;;;;5086072;28;20104;-64
2021/05/12 02:03:55;;;;;;;14.38;12.75;;;11.90;99.90;;;;;;5085816;28;20044;-64
2021/05/12 02:06:21;;;;;;;18.48;12.75;;;11.90;99.90;;;;;;5086166;28;20048;-64
2021/05/12 02:08:47;;;;;;;18.50;12.30;;;11.90;99.90;;;;;;5085532;28;20048;-64
2021/05/12 02:11:12;;;;;;;18.08;13.57;;;11.90;99.90;;;;;;5085377;28;20041;-64
2021/05/12 02:13:38;;;;;;;18.23;14.15;;;11.90;99.90;;;;;;5085635;28;20040;-64
2021/05/12 02:16:06;;;;;;;16.15;12.50;;;11.80;99.90;;;;;;5074751;28;20044;-64
2021/05/12 02:18:33;;;;;;;19.17;14.07;;;11.80;99.90;;;;;;5083142;28;20060;-64
2021/05/12 02:20:59;;;;;;;19.58;13.90;;;11.90;99.90;;;;;;5086187;28;20068;-64
2021/05/12 02:23:29;;;;;;;19.98;12.98;;;11.90;99.90;;;;;;5086277;28;20557;-63
2021/05/12 02:25:55;;;;;;;17.00;14.10;;;11.90;99.90;;;;;;5086151;28;20044;-64
2021/05/12 02:28:21;;;;;;;17.38;13.73;;;11.90;99.90;;;;;;5073965;28;20044;-64
2021/05/12 02:30:46;;;;;;;17.13;13.20;;;11.90;99.90;;;;;;5085373;28;20045;-63
2021/05/12 02:33:13;;;;;;;17.63;13.20;;;11.90;99.90;;;;;;5081656;28;20079;-64
2021/05/12 02:35:40;;;;;;;19.73;13.77;;;11.80;99.90;;;;;;5075715;28;20044;-64
2021/05/12 02:38:06;;;;;;;17.67;13.38;;;11.90;99.90;;;;;;5085399;28;20048;-64
2021/05/12 02:40:32;;;;;;;16.98;12.60;;;11.90;99.90;;;;;;5085533;28;20045;-65
2021/05/12 02:43:00;;;;;;;17.60;14.05;;;11.90;99.90;;;;;;5071758;28;20125;-64
2021/05/12 02:45:26;;;;;;;18.77;13.50;;;11.90;99.90;;;;;;5085263;28;20049;-64
2021/05/12 02:48:01;;;;;;;18.67;13.93;;;11.90;99.90;;;;;;5085073;28;20052;-64
2021/05/12 02:50:39;;;;;;;18.65;13.68;;;11.90;99.90;;;;;;5085491;28;20078;-64
2021/05/12 02:53:06;;;;;;;20.77;15.15;;;11.90;99.90;;;;;;5084171;28;20051;-64
2021/05/12 02:55:33;;;;;;;19.45;15.02;;;11.90;99.90;;;;;;5073124;28;20040;-64
2021/05/12 02:58:00;;;;;;;19.50;14.48;;;11.90;99.90;;;;;;5070120;28;20036;-64
2021/05/12 03:00:29;;;;;;;18.90;15.55;;;11.90;99.90;;;;;;5085667;28;20052;-64
2021/05/12 03:02:55;;;;;;;20.58;15.52;;;11.90;99.90;;;;;;5084747;28;20043;-64
2021/05/12 03:05:21;;;;;;;22.58;16.20;;;11.90;99.90;;;;;;5085159;28;20045;-64
2021/05/12 03:07:48;;;;;;;21.65;15.70;;;11.90;99.90;;;;;;5084699;28;20037;-64
2021/05/12 03:10:16;;;;;;;19.30;15.23;;;11.80;99.90;;;;;;5077229;28;20076;-64
2021/05/12 03:12:42;;;;;;;21.33;15.55;;;11.80;99.90;;;;;;5078557;28;20037;-64
2021/05/12 03:15:13;;;;;;;22.60;16.23;;;11.80;99.90;;;;;;5072303;28;20041;-63
2021/05/12 03:17:39;;;;;;;20.80;15.38;;;11.80;99.90;;;;;;5077858;28;20067;-64
2021/05/12 03:20:07;;;;;;;21.98;17.10;;;11.80;99.90;;;;;;5084794;28;20501;-64
2021/05/12 03:22:32;;;;;;;23.42;16.45;;;11.70;99.90;;;;;;5085388;28;20123;-64
2021/05/12 03:24:58;;;;;;;24.73;17.05;;;11.70;99.90;;;;;;5085097;28;20405;-64
2021/05/12 03:27:24;;;;;;;25.42;16.75;;;11.70;99.90;;;;;;5071801;28;20062;-64
2021/05/12 03:29:50;;;;;;;25.15;17.13;;;11.70;99.90;;;;;;5080817;28;20203;-64
2021/05/12 03:32:16;;;;;;;24.17;16.98;;;11.70;99.90;;;;;;5084917;28;20045;-65
2021/05/12 03:34:42;;;;;;;25.15;16.60;;;11.60;99.90;;;;;;5084825;28;20048;-64
2021/05/12 03:37:07;;;;;;;25.92;16.83;;;11.60;99.90;;;;;;5085526;28;20078;-64
2021/05/12 03:39:33;;;;;;;22.15;15.95;;;11.70;99.90;;;;;;5085296;28;20048;-64
2021/05/12 03:41:59;;;;;;;26.83;17.20;;;11.60;99.90;;;;;;5075215;28;20074;-64
2021/05/12 03:44:25;;;;;;;23.10;16.73;;;11.60;99.90;;;;;;5068194;28;20054;-63
2021/05/12 03:46:51;;;;;;;23.90;16.73;;;11.60;99.90;;;;;;5085254;28;20054;-64
2021/05/12 03:49:17;;;;;;;23.23;17.20;;;11.60;99.90;;;;;;5082819;28;20052;-63
2021/05/12 03:51:42;;;;;;;26.48;17.25;;;11.60;99.90;;;;;;5073847;28;20055;-64
2021/05/12 03:54:08;;;;;;;22.15;17.30;;;11.60;99.90;;;;;;5084562;28;20051;-64
2021/05/12 03:56:34;;;;;;;24.70;17.08;;;11.60;99.90;;;;;;5066728;28;20072;-64
2021/05/12 03:59:00;;;;;;;26.75;18.13;;;11.60;99.90;;;;;;5079773;28;20125;-64
2021/05/12 04:01:26;;;;;;;27.02;18.35;;;11.60;99.90;;;;;;5084363;28;20068;-63
2021/05/12 04:03:52;;;;;;;28.83;18.70;;;11.60;99.90;;;;;;5084519;28;20512;-64
2021/05/12 04:06:19;;;;;;;24.38;17.88;;;11.50;99.90;;;;;;5084488;28;20119;-64
2021/05/12 04:08:45;;;;;;;22.83;16.98;;;11.50;99.90;;;;;;5086862;28;20720;-64
2021/05/12 04:11:11;;;;;;;25.83;17.40;;;11.50;99.90;;;;;;5088798;28;20044;-65
2021/05/12 04:13:37;;;;;;;27.75;17.85;;;11.50;99.90;;;;;;5088631;28;20048;-64
2021/05/12 04:16:03;;;;;;;26.73;18.75;;;11.50;99.90;;;;;;5086788;28;20048;-64
2021/05/12 04:18:29;;;;;;;25.75;18.17;;;11.50;99.90;;;;;;5087545;28;20056;-64
2021/05/12 04:20:55;;;;;;;26.38;16.65;;;11.60;99.90;;;;;;5086594;28;20052;-64
2021/05/12 04:23:21;;;;;;;27.45;18.67;;;11.60;99.90;;;;;;5087724;28;20054;-64
2021/05/12 04:25:47;;;;;;;24.90;18.58;;;11.60;99.90;;;;;;5086695;28;20059;-65
2021/05/12 04:28:13;;;;;;;29.95;18.42;;;11.60;99.90;;;;;;5085961;28;20119;-65
2021/05/12 04:30:39;;;;;;;25.15;17.73;;;11.70;99.90;;;;;;5086547;28;20078;-65
2021/05/12 04:33:05;;;;;;;25.88;18.33;;;11.60;99.90;;;;;;5074370;28;20108;-65
2021/05/12 04:35:31;;;;;;;25.98;17.95;;;11.60;99.90;;;;;;5081092;28;20056;-65
2021/05/12 04:37:57;;;;;;;29.85;18.48;;;11.60;99.90;;;;;;5080518;28;20115;-65
2021/05/12 04:40:23;;;;;;;28.10;18.42;;;11.60;99.90;;;;;;5073673;28;20048;-65
2021/05/12 04:42:50;;;;;;;28.55;19.02;;;11.50;99.90;;;;;;5087711;28;20048;-65
2021/05/12 04:45:17;;;;;;;31.38;20.02;;;11.50;99.90;;;;;;5085215;28;20063;-64
2021/05/12 04:47:54;;;;;;;30.10;19.13;;;11.60;99.90;;;;;;5076540;28;20064;-65
2021/05/12 04:50:28;;;;;;;25.25;16.52;;;11.60;99.90;;;;;;5087257;28;20044;-65
2021/05/12 04:52:54;;;;;;;29.38;19.58;;;11.60;99.90;;;;;;5087403;28;20048;-65
2021/05/12 04:55:20;;;;;;;24.50;17.25;;;11.60;99.90;;;;;;5073482;28;20064;-65
2021/05/12 04:57:46;;;;;;;28.52;18.98;;;11.70;99.90;;;;;;5069431;28;20563;-65
2021/05/12 05:00:14;;;;;;;31.35;18.98;;;11.70;99.90;;;;;;5081074;28;20063;-65
2021/05/12 05:02:42;;;;;;;28.95;18.98;;;11.70;99.90;;;;;;5078957;28;20063;-65
2021/05/12 05:05:10;;;;;;;30.10;19.85;;;11.60;99.90;;;;;;5083140;28;20045;-64
2021/05/12 05:07:37;;;;;;;31.60;19.60;;;11.60;99.90;;;;;;5072849;28;20045;-65
2021/05/12 05:10:03;;;;;;;28.33;20.00;;;11.50;99.90;;;;;;5080887;28;20126;-65
2021/05/12 05:12:29;;;;;;;31.13;19.25;;;11.50;99.90;;;;;;5076370;28;20055;-65
2021/05/12 05:14:56;;;;;;;30.95;20.25;;;11.60;99.90;;;;;;5082794;28;20049;-65
2021/05/12 05:17:25;;;;;;;27.17;19.60;;;11.60;99.90;;;;;;5068764;28;20481;-65
2021/05/12 05:19:53;;;;;;;33.20;21.00;;;11.60;99.90;;;;;;5069007;28;20057;-65
2021/05/12 05:22:20;;;;;;;29.50;20.65;;;11.60;99.90;;;;;;5068319;28;20061;-63
2021/05/12 05:24:48;;;;;;;27.35;19.85;;;11.50;99.90;;;;;;5068161;28;20053;-63
2021/05/12 05:27:14;;;;;;;32.67;21.30;;;11.50;99.90;;;;;;5067108;28;20128;-61
2021/05/12 05:29:40;;;;;;;30.48;21.08;;;11.50;99.90;;;;;;5056455;28;20044;-64
2021/05/12 05:32:06;;;;;;;29.02;20.77;;;11.60;99.90;;;;;;5040390;28;20056;-63
2021/05/12 05:34:32;;;;;;;35.97;22.40;;;11.60;99.90;;;;;;5065481;28;20064;-64
2021/05/12 05:36:58;;;;;;;34.03;20.85;;;11.60;99.90;;;;;;5063632;28;20067;-63
2021/05/12 05:39:24;;;;;;;33.88;21.60;;;11.60;99.90;;;;;;5066850;28;20053;-64
2021/05/12 05:41:54;;;;;;;30.85;20.30;;;11.60;99.90;;;;;;5064369;28;20538;-64
2021/05/12 05:44:20;;;;;;;31.60;21.73;;;11.80;99.90;;;;;;5044648;28;20049;-64
2021/05/12 05:46:46;;;;;;;31.55;20.92;;;11.80;99.90;;;;;;5062506;28;20056;-64
2021/05/12 05:49:12;;;;;;;26.27;19.80;;;11.90;99.90;;;;;;5063528;28;20040;-65
2021/05/12 05:51:38;;;;;;;25.17;17.67;;;12.00;99.90;;;;;;5065833;28;20048;-65
2021/05/12 05:54:05;;;;;;;24.90;17.75;;;12.00;99.90;;;;;;5061449;28;20388;-64
2021/05/12 05:56:32;;;;;;;22.95;16.52;;;12.10;99.90;;;;;;5062277;28;20072;-65
2021/05/12 05:58:58;;;;;;;23.95;17.48;;;12.20;99.90;;;;;;5067862;28;20060;-64
2021/05/12 06:01:24;;;;;;;23.77;17.92;;;12.20;99.90;;;;;;5067065;28;20051;-64
2021/05/12 06:03:50;;;;;;;24.52;16.02;;;12.20;99.90;;;;;;5073189;28;20079;-65
2021/05/12 06:06:17;;;;;;;22.73;16.15;;;12.30;99.90;;;;;;5076708;28;20040;-64
2021/05/12 06:08:43;;;;;;;21.98;15.63;;;12.40;99.90;;;;;;5067350;28;20105;-65
2021/05/12 06:11:10;;;;;;;24.88;17.73;;;12.40;99.90;;;;;;5076743;28;20131;-65
2021/05/12 06:13:36;;;;;;;21.70;16.10;;;12.40;99.90;;;;;;5072925;28;20149;-65
2021/05/12 06:16:03;;;;;;;18.27;14.80;;;12.40;99.90;;;;;;5076958;28;20488;-65
2021/05/12 06:18:29;;;;;;;19.95;14.98;;;12.40;99.90;;;;;;5074338;28;20053;-65
2021/05/12 06:20:56;;;;;;;20.33;15.95;;;12.50;99.90;;;;;;5078159;28;20045;-65
2021/05/12 06:23:22;;;;;;;18.65;14.32;;;12.50;99.90;;;;;;5073000;28;20041;-65
2021/05/12 06:25:52;;;;;;;21.38;15.25;;;12.50;99.90;;;;;;5076621;28;20044;-65
2021/05/12 06:28:19;;;;;;;21.48;13.98;;;12.60;99.90;;;;;;5067596;28;20049;-66
2021/05/12 06:30:49;;;;;;;16.70;12.75;;;12.60;99.90;;;;;;5071206;28;20104;-65
2021/05/12 06:33:19;;;;;;;16.45;12.25;;;12.70;99.90;;;;;;5075376;28;20036;-64
2021/05/12 06:35:45;;;;;;;13.68;10.50;;;12.70;99.90;;;;;;5076259;28;20041;-64
2021/05/12 06:38:11;;;;;;;15.95;11.82;;;12.80;99.90;;;;;;5074801;28;20091;-67
2021/05/12 06:40:38;;;;;;;16.65;11.25;;;12.80;99.90;;;;;;5073844;28;20041;-64
2021/05/12 06:43:04;;;;;;;15.15;10.13;;;12.90;99.90;;;;;;5075585;28;20131;-64
2021/05/12 06:45:30;;;;;;;16.13;10.73;;;13.10;99.90;;;;;;5075596;28;20032;-64
2021/05/12 06:47:56;;;;;;;15.88;9.95;;;13.10;99.90;;;;;;5074483;28;20044;-65
2021/05/12 06:50:28;;;;;;;14.27;8.90;;;13.00;99.90;;;;;;5052992;28;20052;-65
2021/05/12 06:52:57;;;;;;;12.55;8.35;;;13.10;99.90;;;;;;5073792;28;20073;-65
2021/05/12 06:55:24;;;;;;;13.80;8.55;;;13.10;99.90;;;;;;5054728;28;20056;-65
2021/05/12 06:57:51;;;;;;;10.57;6.60;;;13.20;99.90;;;;;;5063086;28;20049;-65
2021/05/12 07:00:18;;;;;;;14.38;6.93;;;13.30;99.90;;;;;;5063339;28;20188;-65
2021/05/12 07:02:44;;;;;;;11.95;6.65;;;13.30;99.90;;;;;;5063705;28;20041;-64
2021/05/12 07:05:15;;;;;;;13.50;7.20;;;13.30;99.90;;;;;;5063654;28;20517;-64
2021/05/12 07:07:41;;;;;;;;;;;13.30;99.90;;;;;;5061046;28;20073;-64
2021/05/12 07:10:09;;;;;;;13.75;7.50;;;13.30;99.90;;;;;;5028187;28;20639;-67
2021/05/12 07:12:36;;;;;;;13.25;7.05;;;13.30;99.90;;;;;;5065295;28;20056;-65
2021/05/12 07:15:04;;;;;;;9.45;7.35;;;13.30;99.90;;;;;;5062945;28;20045;-65
2021/05/12 07:17:30;;;;;;;11.55;6.55;;;13.30;99.90;;;;;;5073832;28;20044;-65
2021/05/12 07:19:56;;;;;;;12.95;6.78;;;13.30;99.90;;;;;;5079239;28;20388;-65
2021/05/12 07:22:22;;;;;;;13.73;8.20;;;13.50;99.90;;;;;;5058493;28;20051;-69
2021/05/12 07:24:49;;;;;;;11.55;6.53;;;13.60;99.90;;;;;;5055966;28;20569;-69
2021/05/12 07:27:17;;;;;;;9.43;6.43;;;13.60;99.90;;;;;;5044783;28;20102;-69
2021/05/12 07:29:48;;;;;;;10.88;6.35;;;13.60;99.90;;;;;;5069800;28;20519;-69
2021/05/12 07:32:14;;;;;;;12.50;6.32;;;13.70;99.90;;;;;;5042318;28;20040;-68
2021/05/12 07:34:40;;;;;;;14.70;6.85;;;13.70;99.90;;;;;;5084909;28;20642;-69
2021/05/12 07:37:07;;;;;;;12.38;5.93;;;13.80;99.90;;;;;;5048181;28;20041;-69
2021/05/12 07:39:40;;;;;;;12.32;6.22;;;13.80;99.90;;;;;;5069864;28;20049;-68
2021/05/12 07:42:08;;;;;;;12.65;6.18;;;13.80;99.90;;;;;;5052504;28;20036;-71
2021/05/12 07:44:34;;;;;;;8.95;5.85;;;13.80;99.90;;;;;;5103298;28;20047;-71
2021/05/12 07:47:00;;;;;;;10.93;6.22;;;13.80;99.90;;;;;;5068659;28;20040;-71
2021/05/12 07:49:26;;;;;;;10.40;5.07;;;14.00;99.90;;;;;;5105623;28;20104;-71
2021/05/12 07:51:52;;;;;;;10.90;5.93;;;14.00;99.90;;;;;;5060417;28;20037;-71
2021/05/12 07:54:18;;;;;;;9.52;4.85;;;14.10;99.90;;;;;;5083352;28;20257;-71
2021/05/12 07:56:47;;;;;;;10.52;4.82;;;14.10;99.90;;;;;;5065970;28;20112;-71
2021/05/12 07:59:19;;;;;;;10.60;5.97;;;14.10;99.90;;;;;;5066699;28;20065;-70
2021/05/12 08:01:47;;;;;;;13.82;6.40;;;14.10;99.90;;;;;;5060821;28;20120;-71
2021/05/12 08:04:13;;;;;;;11.63;5.03;;;14.20;99.90;;;;;;5085249;28;20052;-71
2021/05/12 08:06:40;;;;;;;8.68;4.70;;;14.30;99.90;;;;;;5062368;28;20060;-70
2021/05/12 08:09:08;;;;;;;9.05;5.60;;;14.30;99.90;;;;;;5068148;28;20052;-70
2021/05/12 08:11:36;;;;;;;;;;;14.30;99.90;;;;;;5065410;28;20147;-71
2021/05/12 08:14:05;;;;;;;10.07;3.92;;;14.30;99.90;;;;;;5087890;28;19963;-71
2021/05/12 08:16:33;;;;;;;8.98;3.50;;;14.30;99.90;;;;;;5059311;28;20600;-66
2021/05/12 08:19:09;;;;;;;7.60;3.67;;;14.30;99.90;;;;;;5085877;28;20609;-71
2021/05/12 08:21:35;;;;;;;7.30;3.92;;;14.40;99.90;;;;;;5061850;28;20053;-67
2021/05/12 08:24:01;;;;;;;10.30;4.15;;;14.50;99.90;;;;;;5084073;28;20059;-68
2021/05/12 08:26:28;;;;;;;8.18;3.20;;;14.50;99.90;;;;;;5063982;28;20048;-68
2021/05/12 08:28:55;;;;;;;7.13;3.50;;;14.50;99.90;;;;;;5083696;28;20052;-68
2021/05/12 08:31:22;;;;;;;7.18;3.40;;;14.50;99.90;;;;;;5062104;28;20133;-68
2021/05/12 08:33:48;;;;;;;6.85;3.88;;;14.60;99.90;;;;;;5079560;28;20082;-68
2021/05/12 08:36:34;;;;;;;6.53;3.35;;;14.70;99.90;;;;;;5061052;28;20092;-68
2021/05/12 08:39:00;;;;;;;6.40;4.10;;;14.70;99.90;;;;;;5081600;28;20078;-68
2021/05/12 08:41:27;;;;;;;10.27;3.70;;;14.70;99.90;;;;;;5059223;28;20055;-68
2021/05/12 08:43:53;;;;;;;8.68;3.42;;;14.60;99.90;;;;;;5084994;28;20130;-68
2021/05/12 08:46:20;;;;;;;9.80;3.20;;;14.60;99.90;;;;;;5067519;28;20045;-68
2021/05/12 08:48:47;;;;;;;8.10;3.60;;;14.80;99.90;;;;;;5079266;28;20040;-68
2021/05/12 08:51:13;;;;;;;6.05;3.40;;;14.80;99.90;;;;;;5053734;28;20049;-68
2021/05/12 08:53:39;;;;;;;5.57;2.50;;;14.80;99.90;;;;;;5073178;28;20106;-68
2021/05/12 08:56:06;;;;;;;5.35;2.40;;;14.90;99.90;;;;;;5074742;28;20041;-68
2021/05/12 08:58:33;;;;;;;6.15;2.90;;;15.00;99.90;;;;;;5076997;28;20063;-68
2021/05/12 09:01:00;;;;;;;7.57;2.50;;;15.00;99.90;;;;;;5080222;28;20205;-68
2021/05/12 09:03:29;;;;;;;7.32;2.10;;;14.90;99.90;;;;;;5070608;28;20048;-68
2021/05/12 09:05:58;;;;;;;4.55;1.77;;;15.00;99.90;;;;;;5082883;28;20124;-68
2021/05/12 09:08:28;;;;;;;8.68;2.40;;;15.00;99.90;;;;;;5069553;28;20052;-68
2021/05/12 09:10:55;;;;;;;4.43;1.95;;;15.10;99.90;;;;;;5069383;28;20067;-68
2021/05/12 09:13:33;;;;;;;3.88;1.80;;;15.20;99.90;;;;;;5067670;28;20126;-69
2021/05/12 09:16:19;;;;;;;3.15;1.52;;;15.20;99.90;;;;;;5079280;28;20070;-69
2021/05/12 09:18:46;;;;;;;5.80;1.40;;;15.30;99.90;;;;;;5074389;28;20125;-68
2021/05/12 09:21:13;;;;;;;4.95;1.88;;;15.40;99.90;;;;;;5066583;28;20071;-68
2021/05/12 09:23:40;;;;;;;3.08;1.48;;;15.40;99.90;;;;;;5071629;28;20479;-69
2021/05/12 09:26:14;;;;;;;3.53;1.48;;;15.50;99.90;;;;;;5066831;28;20056;-68
2021/05/12 09:28:41;;;;;;;3.65;1.50;;;15.50;99.90;;;;;;5076735;28;20051;-68
2021/05/12 09:31:13;;;;;;;5.05;1.42;;;15.60;99.90;;;;;;5065511;28;20045;-68
2021/05/12 09:33:44;;;;;;;4.82;1.83;;;15.60;99.90;;;;;;5074886;28;20051;-68
2021/05/12 09:36:25;;;;;;;3.03;1.27;;;15.80;99.90;;;;;;5072607;28;20041;-69
2021/05/12 09:38:55;;;;;;;6.35;1.98;;;15.90;99.90;;;;;;5059165;28;20068;-68
2021/05/12 09:41:30;;;;;;;;;;;16.00;99.90;;;;;;5069819;28;20045;-68
2021/05/12 09:43:56;;;;;;;4.00;1.15;;;16.00;99.90;;;;;;5080111;28;19927;-69
2021/05/12 09:46:35;;;;;;;4.55;1.20;;;15.90;99.90;;;;;;5072358;28;20123;-68
2021/05/12 09:49:01;;;;;;;2.15;1.00;;;16.10;99.90;;;;;;5082580;28;20056;-68
2021/05/12 09:51:30;;;;;;;3.95;1.20;;;16.20;98.50;;;;;;5055118;28;20099;-68
2021/05/12 09:54:05;;;;;;;4.38;1.00;;;16.20;99.00;;;;;;5083609;28;20563;-68
2021/05/12 09:56:42;;;;;;;6.25;1.80;;;16.40;99.90;;;;;;5065276;28;20049;-68
2021/05/12 09:59:10;;;;;;;4.13;1.30;;;16.40;99.90;;;;;;5085984;28;20051;-68
2021/05/12 10:01:41;;;;;;;5.53;1.90;;;16.20;99.40;;;;;;5066497;28;20705;-68
2021/05/12 10:04:24;;;;;;;3.53;1.13;;;16.30;99.70;;;;;;5081786;28;20044;-68
2021/05/12 10:06:51;;;;;;;5.80;1.38;;;16.30;99.60;;;;;;5048469;28;20047;-68
2021/05/12 10:09:21;;;;;;;5.22;1.30;;;16.30;99.90;;;;;;5033833;28;20144;-68
2021/05/12 10:12:00;;;;;;;;;;;16.30;99.90;;;;;;5036661;28;20045;-68
2021/05/12 10:14:26;;;;;;;5.55;1.55;;;16.10;99.40;;;;;;5046727;28;19920;-68
2021/05/12 10:16:52;;;;;;;5.30;1.55;;;16.40;99.90;;;;;;5057519;28;20057;-68
2021/05/12 10:19:19;;;;;;;6.40;1.83;;;16.50;99.90;;;;;;5080298;28;20585;-68
2021/05/12 10:21:47;;;;;;;5.10;1.73;;;16.60;99.90;;;;;;5061248;28;20056;-68
2021/05/12 10:24:13;;;;;;;7.13;1.60;;;16.70;99.90;;;;;;5078933;28;20099;-68
2021/05/12 10:26:43;;;;;;;5.43;1.38;;;16.80;99.90;;;;;;5058200;28;20076;-68
2021/05/12 10:29:14;;;;;;;5.47;1.60;;;16.90;99.90;;;;;;5076664;28;20101;-68
2021/05/12 10:31:41;;;;;;;5.95;1.77;;;17.00;99.20;;;;;;5060283;28;20037;-68
2021/05/12 10:34:07;;;;;;;4.70;1.60;;;16.90;99.40;;;;;;5073041;28;20105;-68
2021/05/12 10:36:33;;;;;;;5.28;1.58;;;17.10;99.90;;;;;;5063044;28;20083;-67
2021/05/12 10:39:03;;;;;;;5.00;1.67;;;17.30;99.90;;;;;;5073727;28;20056;-68
2021/05/12 10:41:49;;;;;;;5.00;1.20;;;17.00;98.90;;;;;;5064602;28;20056;-68
2021/05/12 10:44:36;;;;;;;6.13;2.00;;;16.90;99.90;;;;;;5075470;28;20056;-68
2021/05/12 10:47:18;;;;;;;6.15;2.05;;;16.90;99.90;;;;;;5058499;28;20465;-69
2021/05/12 10:49:54;;;;;;;4.32;1.15;;;17.00;99.80;;;;;;5079420;28;20272;-69
2021/05/12 10:52:19;;;;;;;4.82;1.10;;;16.90;97.70;;;;;;5029950;28;20399;-69
2021/05/12 10:54:50;;;;;;;4.47;1.38;;;16.90;98.70;;;;;;5061990;28;20131;-69
2021/05/12 10:57:46;;;;;;;4.53;1.20;;;16.90;99.30;;;;;;5057025;28;20059;-69
2021/05/12 11:00:14;;;;;;;4.70;1.45;;;16.80;99.40;;;;;;5048403;28;20105;-69
2021/05/12 11:02:51;;;;;;;5.45;1.15;;;16.90;99.70;;;;;;5050545;28;20056;-70
2021/05/12 11:05:18;;;;;;;4.32;1.08;;;17.10;99.50;;;;;;5086906;28;20626;-70
2021/05/12 11:08:20;;;;;;;4.07;1.40;;;17.20;98.60;;;;;;5051739;28;20061;-69
2021/05/12 11:11:04;;;;;;;7.20;1.52;;;17.30;99.40;;;;;;5076426;28;20067;-69
2021/05/12 11:13:32;;;;;;;4.75;1.50;;;17.20;98.90;;;;;;5050192;28;20048;-69
2021/05/12 11:16:00;;;;;;;5.38;1.25;;;17.30;97.40;;;;;;5066060;28;20041;-70
2021/05/12 11:18:40;;;;;;;10.20;1.92;;;17.40;99.40;;;;;;5061222;28;20341;-69
2021/05/12 11:21:27;;;;;;;7.85;1.55;;;17.50;96.90;;;;;;5078282;28;20041;-69
2021/05/12 11:24:09;;;;;;;5.72;1.40;;;17.70;97.20;;;;;;5067517;28;20048;-69
2021/05/12 11:27:04;;;;;;;3.97;1.23;;;17.50;98.00;;;;;;5070145;28;20445;-69
2021/05/12 11:32:09;;;;;;;4.22;1.13;;;17.40;98.80;;;;;;5070364;28;20541;-69
2021/05/12 11:34:37;;;;;;;6.90;1.75;;;17.40;98.60;;;;;;5087408;28;20051;-69
2021/05/12 11:37:12;;;;;;;6.03;1.67;;;17.40;96.30;;;;;;5057857;28;20605;-69
2021/05/12 11:39:39;;;;;;;5.53;1.10;;;17.40;99.10;;;;;;5089820;28;20043;-69
2021/05/12 11:42:25;;;;;;;5.93;1.60;;;17.40;96.60;;;;;;5067071;28;20163;-68
2021/05/12 11:45:09;;;;;;;5.15;1.08;;;17.40;96.70;;;;;;5086311;28;20051;-69
2021/05/12 11:47:38;;;;;;;5.75;1.33;;;17.30;96.20;;;;;;5068979;28;20095;-69
2021/05/12 11:50:16;;;;;;;;;;;17.10;97.20;;;;;;5074472;28;20056;-69
2021/05/12 11:52:46;;;;;;;5.75;1.63;;;17.00;96.20;;;;;;5039286;28;19925;-68
2021/05/12 11:55:12;;;;;;;5.53;1.35;;;17.10;98.50;;;;;;5062245;28;20041;-69
2021/05/12 11:57:38;;;;;;;7.97;1.50;;;17.00;99.90;;;;;;5043489;28;20118;-69
2021/05/12 12:00:14;;;;;;;5.97;1.40;;;17.00;98.80;;;;;;5049056;28;20284;-69
2021/05/12 12:02:40;;;;;;;3.45;0.93;;;17.10;99.90;;;;;;5046004;28;20282;-69
2021/05/12 12:05:09;;;;;;;7.63;1.63;;;17.30;99.90;;;;;;5049506;28;20076;-69
2021/05/12 12:07:35;;;;;;;7.70;1.88;;;17.50;98.90;;;;;;5040912;28;20052;-69
2021/05/12 12:10:05;;;;;;;6.15;1.63;;;17.40;96.90;;;;;;5059002;28;20041;-69
2021/05/12 12:12:36;;;;;;;5.65;1.25;;;17.50;98.60;;;;;;5028854;28;20042;-69
2021/05/12 12:15:06;;;;;;;;;;;17.60;95.60;;;;;;5064598;28;20040;-69
2021/05/12 12:17:32;;;;;;;6.30;1.30;;;17.60;95.90;;;;;;5042417;28;20320;-69
2021/05/12 12:20:04;;;;;;;7.05;1.20;;;17.80;96.70;;;;;;5064559;28;20049;-69
2021/05/12 12:22:29;;;;;;;5.90;1.20;;;17.90;96.00;;;;;;5042244;28;20115;-69
2021/05/12 12:24:55;;;;;;;5.47;1.50;;;18.10;96.30;;;;;;5065360;28;20564;-69
2021/05/12 12:27:21;;;;;;;8.27;1.95;;;18.10;95.90;;;;;;5039407;28;20060;-69
2021/05/12 12:29:49;;;;;;;5.55;1.27;;;18.10;95.70;;;;;;5043147;28;20052;-69
2021/05/12 12:32:16;;;;;;;3.78;1.02;;;18.10;95.20;;;;;;5039952;28;20045;-70
2021/05/12 12:34:46;;;;;;;7.10;1.77;;;18.00;94.40;;;;;;5044238;28;20053;-69
2021/05/12 12:37:16;;;;;;;;;;;17.80;94.50;;;;;;5043858;28;20061;-70
2021/05/12 12:39:57;;;;;;;6.10;1.42;;;17.90;94.00;;;;;;5043898;28;19951;-69
2021/05/12 12:42:39;;;;;;;6.20;1.55;;;18.00;94.90;;;;;;5050973;28;20115;-69
2021/05/12 12:45:14;;;;;;;4.70;1.10;;;18.00;93.30;;;;;;5032271;28;20116;-68